Time;durP1;ratioP1;P1;durP2;ratioP2;P2;SDS_P1;SDS_P2;PMS_P1;PMS_P2;Temp;Humidity;BMP_temperature;BMP_pressure;BME280_temperature;BME280_humidity;BME280_pressure;Samples;Min_cycle;Max_cycle;Signal;HPM_P1;HPM_P2
2023/10/01 00:00:47;;;;;;;6.72;5.32;;;14.30;99.90;;;;;;5044737;28;20216;-80
2023/10/01 00:03:16;;;;;;;5.97;5.35;;;14.30;99.90;;;;;;5044178;28;20218;-79
2023/10/01 00:05:43;;;;;;;10.43;5.78;;;14.20;99.90;;;;;;5047634;28;20206;-79
2023/10/01 00:08:12;;;;;;;8.48;6.75;;;14.20;99.90;;;;;;5051171;28;20191;-79
2023/10/01 00:10:41;;;;;;;7.32;5.97;;;14.20;99.90;;;;;;5038705;28;20218;-79
2023/10/01 00:13:11;;;;;;;9.00;6.95;;;14.30;99.90;;;;;;5045752;28;20229;-78
2023/10/01 00:15:39;;;;;;;8.02;6.05;;;14.20;99.90;;;;;;5040541;28;20202;-79
2023/10/01 00:18:07;;;;;;;11.02;6.07;;;14.20;99.90;;;;;;5051092;28;20202;-79
2023/10/01 00:20:35;;;;;;;8.85;5.60;;;14.20;99.90;;;;;;5053651;28;20198;-79
2023/10/01 00:23:03;;;;;;;7.72;5.65;;;14.20;99.90;;;;;;5068632;28;20579;-79
2023/10/01 00:25:31;;;;;;;8.65;5.93;;;14.20;99.90;;;;;;5046960;28;20206;-79
2023/10/01 00:27:59;;;;;;;8.18;5.60;;;14.10;99.90;;;;;;5045540;28;20203;-79
2023/10/01 00:30:31;;;;;;;7.63;5.95;;;14.10;99.90;;;;;;5046933;28;20206;-79
2023/10/01 00:32:59;;;;;;;7.40;5.45;;;14.00;99.90;;;;;;5055132;28;20222;-79
2023/10/01 00:35:27;;;;;;;9.05;5.55;;;14.00;99.90;;;;;;5065614;28;20205;-79
2023/10/01 00:37:58;;;;;;;7.15;5.45;;;14.00;99.90;;;;;;5046359;28;20198;-79
2023/10/01 00:40:27;;;;;;;7.47;5.45;;;14.00;99.90;;;;;;5049751;28;20555;-79
2023/10/01 00:42:54;;;;;;;7.80;5.18;;;14.00;99.90;;;;;;5049887;28;20237;-79
2023/10/01 00:45:23;;;;;;;6.38;5.55;;;14.00;99.90;;;;;;5059993;28;20571;-79
2023/10/01 00:47:52;;;;;;;7.22;5.60;;;14.00;99.90;;;;;;5048805;28;20202;-79
2023/10/01 00:50:21;;;;;;;8.10;5.50;;;14.10;99.90;;;;;;5047371;28;20198;-79
2023/10/01 00:52:50;;;;;;;7.55;5.38;;;14.10;99.90;;;;;;5056961;28;20225;-79
2023/10/01 00:55:18;;;;;;;7.22;5.65;;;14.20;99.90;;;;;;5064195;28;20201;-79
2023/10/01 00:57:45;;;;;;;7.75;6.28;;;14.10;99.90;;;;;;5049848;28;20207;-78
2023/10/01 01:00:16;;;;;;;10.32;5.75;;;14.10;99.90;;;;;;5042240;28;20210;-79
2023/10/01 01:02:56;;;;;;;7.28;6.05;;;14.10;99.90;;;;;;5042644;28;20219;-79
2023/10/01 01:05:28;;;;;;;8.20;6.03;;;14.10;99.90;;;;;;5042203;28;20198;-79
2023/10/01 01:08:00;;;;;;;8.63;6.25;;;14.10;99.90;;;;;;5045530;28;20210;-79
2023/10/01 01:10:31;;;;;;;6.57;5.70;;;14.10;99.90;;;;;;5038871;28;20579;-78
2023/10/01 01:12:59;;;;;;;6.75;5.82;;;14.00;99.90;;;;;;5050191;28;20595;-79
2023/10/01 01:15:27;;;;;;;8.05;6.43;;;14.00;99.90;;;;;;5048150;28;20202;-79
2023/10/01 01:17:54;;;;;;;7.90;7.10;;;14.10;99.90;;;;;;5056090;28;20190;-79
2023/10/01 01:20:22;;;;;;;7.50;6.18;;;14.30;99.90;;;;;;5049410;28;20206;-79
2023/10/01 01:22:52;;;;;;;6.97;6.00;;;14.30;99.90;;;;;;5068512;28;20232;-79
2023/10/01 01:25:21;;;;;;;7.68;6.28;;;14.20;99.90;;;;;;5046179;28;20199;-79
2023/10/01 01:27:50;;;;;;;10.10;6.85;;;14.20;99.90;;;;;;5053420;28;20209;-79
2023/10/01 01:30:19;;;;;;;7.57;5.40;;;14.30;99.90;;;;;;5059428;28;20206;-79
2023/10/01 01:32:53;;;;;;;6.93;5.72;;;14.40;99.90;;;;;;5052863;28;20230;-79
2023/10/01 01:35:27;;;;;;;7.60;6.18;;;14.60;99.90;;;;;;5057033;28;20201;-79
2023/10/01 01:37:58;;;;;;;7.40;5.93;;;14.60;99.90;;;;;;5064221;28;20259;-79
2023/10/01 01:40:31;;;;;;;7.40;5.50;;;14.50;99.90;;;;;;5047423;28;20214;-79
2023/10/01 01:43:04;;;;;;;8.88;6.18;;;14.60;99.90;;;;;;5051408;28;20215;-79
2023/10/01 01:45:38;;;;;;;7.95;5.53;;;14.50;99.90;;;;;;5053395;28;20527;-79
2023/10/01 01:48:21;;;;;;;7.70;5.95;;;14.70;99.90;;;;;;5047763;28;20201;-79
2023/10/01 01:50:49;;;;;;;8.90;5.95;;;14.50;99.90;;;;;;5056144;28;20289;-78
2023/10/01 01:53:18;;;;;;;8.07;5.65;;;14.60;99.90;;;;;;5055246;28;20228;-79
2023/10/01 01:55:47;;;;;;;7.10;5.43;;;14.60;99.90;;;;;;5051883;28;20199;-79
2023/10/01 01:58:23;;;;;;;8.32;5.18;;;14.60;99.90;;;;;;5050976;28;20198;-79
2023/10/01 02:01:08;;;;;;;6.57;5.60;;;14.60;99.90;;;;;;5046652;28;20198;-79
2023/10/01 02:03:37;;;;;;;7.30;5.10;;;14.60;99.90;;;;;;5066630;28;20232;-79
2023/10/01 02:06:08;;;;;;;7.90;5.63;;;14.70;99.90;;;;;;5050607;28;20661;-79
2023/10/01 02:08:48;;;;;;;7.35;4.88;;;14.60;99.90;;;;;;5054358;28;20213;-78
2023/10/01 02:11:15;;;;;;;7.90;5.50;;;14.70;99.90;;;;;;5057847;28;20218;-78
2023/10/01 02:13:45;;;;;;;7.03;5.43;;;14.60;99.90;;;;;;5057945;28;20230;-79
2023/10/01 02:16:35;;;;;;;6.15;5.43;;;14.50;99.90;;;;;;5045869;28;20198;-79
2023/10/01 02:22:00;;;;;;;7.47;5.53;;;14.50;99.90;;;;;;5045265;28;20215;-79
2023/10/01 02:24:44;;;;;;;7.25;5.30;;;14.50;99.90;;;;;;5047832;28;20206;-79
2023/10/01 02:27:13;;;;;;;7.68;5.10;;;14.60;99.90;;;;;;5043898;28;20652;-79
2023/10/01 02:30:11;;;;;;;7.03;5.45;;;14.50;99.90;;;;;;5046722;28;20553;-78
2023/10/01 02:32:35;;;;;;;8.00;5.18;;;14.60;99.90;;;;;;5047804;28;20230;-79
2023/10/01 02:35:33;;;;;;;7.38;5.13;;;14.60;99.90;;;;;;5054633;28;20199;-79
2023/10/01 02:37:51;;;;;;;6.43;4.95;;;14.60;99.90;;;;;;5046053;28;20206;-78
2023/10/01 02:40:19;;;;;;;7.97;5.28;;;14.70;99.90;;;;;;5044097;28;20204;-79
2023/10/01 02:42:49;;;;;;;6.25;4.78;;;14.70;99.90;;;;;;5051973;28;20219;-79
2023/10/01 02:45:30;;;;;;;8.93;5.47;;;14.60;99.90;;;;;;5043537;28;20198;-79
2023/10/01 02:50:39;;;;;;;8.95;5.35;;;14.60;99.90;;;;;;5054455;28;20195;-79
2023/10/01 02:53:06;;;;;;;9.80;4.97;;;14.60;99.90;;;;;;5037774;28;20242;-78
2023/10/01 02:55:35;;;;;;;9.48;5.60;;;14.60;99.90;;;;;;5038631;28;20543;-78
2023/10/01 02:58:18;;;;;;;6.93;5.22;;;14.60;99.90;;;;;;5059647;28;20202;-79
2023/10/01 03:00:46;;;;;;;5.75;4.40;;;14.50;99.90;;;;;;5058098;28;20191;-78
2023/10/01 03:03:15;;;;;;;5.45;4.57;;;14.60;99.90;;;;;;5059751;28;20229;-79
2023/10/01 03:05:46;;;;;;;8.68;5.45;;;14.50;99.90;;;;;;5041383;28;20186;-79
2023/10/01 03:11:22;;;;;;;7.13;4.93;;;14.50;99.90;;;;;;5087907;28;20542;-78
2023/10/01 03:13:51;;;;;;;7.07;5.20;;;14.40;99.90;;;;;;5083340;28;20205;-80
2023/10/01 03:19:17;;;;;;;6.90;4.72;;;14.40;99.90;;;;;;5091624;28;20185;-80
2023/10/01 03:24:29;;;;;;;6.38;4.57;;;14.50;99.90;;;;;;5084812;28;20177;-80
2023/10/01 03:27:12;;;;;;;9.18;5.10;;;14.50;99.90;;;;;;5088250;28;20547;-80
2023/10/01 03:29:42;;;;;;;7.10;4.47;;;14.60;99.90;;;;;;5118230;28;20213;-80
2023/10/01 03:34:53;;;;;;;6.78;4.95;;;14.50;99.90;;;;;;5085597;28;20554;-80
2023/10/01 03:39:51;;;;;;;4.90;4.38;;;14.40;99.90;;;;;;5042926;28;20222;-77
2023/10/01 03:42:21;;;;;;;7.07;4.82;;;14.50;99.90;;;;;;5030988;28;20210;-79
2023/10/01 03:45:19;;;;;;;7.30;4.57;;;14.40;99.90;;;;;;5034492;28;20525;-80
2023/10/01 03:47:51;;;;;;;6.80;4.70;;;14.60;99.90;;;;;;5031139;28;20223;-79
2023/10/01 03:50:21;;;;;;;5.72;4.50;;;14.50;99.90;;;;;;5044169;28;20698;-79
2023/10/01 03:52:52;;;;;;;7.05;4.53;;;14.60;99.90;;;;;;5027367;28;20198;-79
2023/10/01 03:55:30;;;;;;;6.85;3.83;;;14.70;99.90;;;;;;5026066;28;20587;-79
2023/10/01 03:58:18;;;;;;;8.13;4.90;;;14.60;99.90;;;;;;5040281;28;20219;-79
2023/10/01 04:00:53;;;;;;;7.63;4.05;;;14.60;99.90;;;;;;5030710;28;20197;-79
2023/10/01 04:03:22;;;;;;;5.82;4.32;;;14.70;99.90;;;;;;5040000;28;20207;-79
2023/10/01 04:05:56;;;;;;;6.07;4.22;;;14.70;99.90;;;;;;5041860;28;20200;-79
2023/10/01 04:08:24;;;;;;;8.38;4.43;;;14.70;99.90;;;;;;5022340;28;20222;-79
2023/10/01 04:10:58;;;;;;;6.18;4.32;;;14.70;99.90;;;;;;5041979;28;20218;-79
2023/10/01 04:13:28;;;;;;;5.07;3.45;;;14.70;99.90;;;;;;5045754;28;20680;-79
2023/10/01 04:16:07;;;;;;;5.93;4.00;;;14.70;99.90;;;;;;5030023;28;20191;-79
2023/10/01 04:18:36;;;;;;;7.60;4.18;;;14.70;99.90;;;;;;5038431;28;20586;-79
2023/10/01 04:21:24;;;;;;;6.70;4.20;;;14.80;99.90;;;;;;5020366;28;20196;-79
2023/10/01 04:23:54;;;;;;;5.40;3.97;;;14.80;99.90;;;;;;5005544;28;20193;-79
2023/10/01 04:26:23;;;;;;;6.75;4.05;;;14.80;99.90;;;;;;5009270;28;20196;-79
2023/10/01 04:28:54;;;;;;;8.93;4.40;;;14.80;99.90;;;;;;5015377;28;20725;-79
2023/10/01 04:31:42;;;;;;;7.05;4.30;;;14.80;99.90;;;;;;5016351;28;20211;-79
2023/10/01 04:34:11;;;;;;;6.28;4.30;;;14.80;99.90;;;;;;5019324;28;20207;-79
2023/10/01 04:36:39;;;;;;;6.65;4.45;;;14.80;99.90;;;;;;5027132;28;20195;-79
2023/10/01 04:39:06;;;;;;;5.75;3.97;;;14.80;99.90;;;;;;5014098;28;20235;-79
2023/10/01 04:41:34;;;;;;;5.88;3.88;;;14.90;99.90;;;;;;5010869;28;20192;-79
2023/10/01 04:44:07;;;;;;;5.45;4.22;;;14.90;99.90;;;;;;5030435;28;20215;-79
2023/10/01 04:46:37;;;;;;;5.47;4.20;;;14.90;99.90;;;;;;5024541;28;20195;-79
2023/10/01 04:49:08;;;;;;;6.70;3.95;;;14.90;99.90;;;;;;5010714;28;20587;-79
2023/10/01 04:51:45;;;;;;;6.18;3.90;;;14.90;99.90;;;;;;5022398;28;20210;-79
2023/10/01 04:54:17;;;;;;;6.20;4.10;;;14.90;99.90;;;;;;5032347;28;20549;-79
2023/10/01 04:56:45;;;;;;;5.50;3.88;;;14.90;99.90;;;;;;5017018;28;20452;-79
2023/10/01 04:59:15;;;;;;;6.38;4.15;;;14.90;99.90;;;;;;5021939;28;20235;-79
2023/10/01 05:01:42;;;;;;;6.35;3.78;;;15.00;99.90;;;;;;5035486;28;20202;-79
2023/10/01 05:04:11;;;;;;;7.03;4.25;;;14.90;99.90;;;;;;5029966;28;20208;-79
2023/10/01 05:06:43;;;;;;;5.38;4.07;;;14.90;99.90;;;;;;5029493;28;20200;-79
2023/10/01 05:09:14;;;;;;;6.65;3.95;;;15.00;99.90;;;;;;5014375;28;20226;-79
2023/10/01 05:11:42;;;;;;;5.47;3.70;;;15.00;99.90;;;;;;5030928;28;20223;-79
2023/10/01 05:14:12;;;;;;;3.97;3.40;;;14.90;99.90;;;;;;5023571;28;20204;-79
2023/10/01 05:16:43;;;;;;;8.05;4.57;;;15.00;99.90;;;;;;5017018;28;20199;-79
2023/10/01 05:19:12;;;;;;;6.03;4.05;;;15.00;99.90;;;;;;5015782;28;20228;-79
2023/10/01 05:21:46;;;;;;;7.10;3.90;;;15.00;99.90;;;;;;5030086;28;20199;-79
2023/10/01 05:24:31;;;;;;;6.85;4.00;;;15.00;99.90;;;;;;5037587;28;20211;-79
2023/10/01 05:27:02;;;;;;;5.00;3.50;;;15.00;99.90;;;;;;5016443;28;20200;-80
2023/10/01 05:29:31;;;;;;;7.05;4.05;;;15.10;99.90;;;;;;5013009;28;20614;-80
2023/10/01 05:32:01;;;;;;;6.63;3.90;;;15.00;99.90;;;;;;5022839;28;20215;-79
2023/10/01 05:34:28;;;;;;;7.30;4.10;;;15.10;99.90;;;;;;5014481;28;20202;-79
2023/10/01 05:37:08;;;;;;;6.60;4.25;;;15.00;99.90;;;;;;5005506;28;20206;-80
2023/10/01 05:39:55;;;;;;;6.68;3.85;;;15.00;99.90;;;;;;5024887;28;20230;-80
2023/10/01 05:42:24;;;;;;;7.03;3.97;;;15.00;99.90;;;;;;5027606;28;20200;-78
2023/10/01 05:44:54;;;;;;;6.85;4.20;;;15.00;99.90;;;;;;5007865;28;20212;-79
2023/10/01 05:47:41;;;;;;;7.63;4.22;;;14.90;99.90;;;;;;5017058;28;20200;-80
2023/10/01 05:50:09;;;;;;;5.53;4.10;;;14.90;99.90;;;;;;5029538;28;20207;-80
2023/10/01 05:52:40;;;;;;;7.45;4.45;;;15.00;99.90;;;;;;5025466;28;20657;-80
2023/10/01 05:55:12;;;;;;;7.18;4.10;;;15.00;99.90;;;;;;5024906;28;20207;-80
2023/10/01 05:57:40;;;;;;;6.88;4.28;;;14.90;99.90;;;;;;5029293;28;20195;-80
2023/10/01 06:00:16;;;;;;;6.68;4.15;;;14.90;99.90;;;;;;5022444;28;20191;-80
2023/10/01 06:03:01;;;;;;;9.05;4.63;;;14.90;99.90;;;;;;5038423;28;20199;-80
2023/10/01 06:05:33;;;;;;;8.13;4.70;;;14.90;99.90;;;;;;5015518;28;20561;-81
2023/10/01 06:08:14;;;;;;;7.25;4.40;;;15.00;99.90;;;;;;5016102;28;20234;-80
2023/10/01 06:10:56;;;;;;;7.18;4.72;;;15.00;99.90;;;;;;5020585;28;20211;-79
2023/10/01 06:13:25;;;;;;;10.88;4.80;;;14.90;99.90;;;;;;5016881;28;20235;-78
2023/10/01 06:15:56;;;;;;;6.82;4.25;;;14.90;99.90;;;;;;5025654;28;20577;-79
2023/10/01 06:18:29;;;;;;;7.28;4.65;;;14.90;99.90;;;;;;5044692;28;20219;-78
2023/10/01 06:21:03;;;;;;;6.63;4.72;;;14.90;99.90;;;;;;5015529;28;20226;-78
2023/10/01 06:23:33;;;;;;;7.78;3.92;;;15.00;99.90;;;;;;5013916;28;20197;-79
2023/10/01 06:26:01;;;;;;;7.70;4.38;;;15.00;99.90;;;;;;5027602;28;20224;-78
2023/10/01 06:28:29;;;;;;;7.15;4.25;;;15.10;99.90;;;;;;5018408;28;20725;-79
2023/10/01 06:30:56;;;;;;;10.13;4.85;;;15.10;99.90;;;;;;5044708;28;20216;-78
2023/10/01 06:33:30;;;;;;;8.68;4.53;;;15.10;99.90;;;;;;5020471;28;20211;-78
2023/10/01 06:38:41;;;;;;;7.40;4.32;;;15.20;99.90;;;;;;5027069;28;20227;-78
2023/10/01 06:41:13;;;;;;;8.55;4.25;;;15.20;99.90;;;;;;5026091;28;20203;-78
2023/10/01 06:43:48;;;;;;;9.18;4.68;;;15.30;99.90;;;;;;5041613;28;20207;-79
2023/10/01 06:46:19;;;;;;;7.93;4.95;;;15.30;99.90;;;;;;5022510;28;20203;-79
2023/10/01 06:48:49;;;;;;;9.73;5.32;;;15.40;99.90;;;;;;5021023;28;20223;-79
2023/10/01 06:51:19;;;;;;;8.77;4.95;;;15.40;99.90;;;;;;5025175;28;20216;-79
2023/10/01 06:53:53;;;;;;;7.85;5.35;;;15.50;99.90;;;;;;5044477;28;20207;-79
2023/10/01 06:56:21;;;;;;;8.07;5.10;;;15.60;99.90;;;;;;5033603;28;20218;-79
2023/10/01 06:59:13;;;;;;;10.05;5.38;;;15.60;99.90;;;;;;5028649;28;20246;-79
2023/10/01 07:01:49;;;;;;;9.18;4.75;;;15.60;99.90;;;;;;5029052;28;20211;-78
2023/10/01 07:04:20;;;;;;;9.70;5.03;;;15.70;99.90;;;;;;5012543;28;20215;-79
2023/10/01 07:06:54;;;;;;;10.88;5.45;;;15.80;99.90;;;;;;5026531;28;20677;-79
2023/10/01 07:09:27;;;;;;;8.43;5.53;;;15.90;99.90;;;;;;5017436;28;20224;-79
2023/10/01 07:11:57;;;;;;;10.40;5.50;;;15.90;99.90;;;;;;5010624;28;20199;-79
2023/10/01 07:14:38;;;;;;;10.95;5.32;;;15.90;99.90;;;;;;5029836;28;20195;-79
2023/10/01 07:17:08;;;;;;;9.55;5.38;;;16.00;99.90;;;;;;5032272;28;20212;-80
2023/10/01 07:19:37;;;;;;;10.20;5.40;;;16.10;99.90;;;;;;5030292;28;20716;-78
2023/10/01 07:22:07;;;;;;;9.90;5.82;;;16.10;99.90;;;;;;5013198;28;20204;-79
2023/10/01 07:24:34;;;;;;;11.73;5.75;;;16.20;99.90;;;;;;5016837;28;20218;-79
2023/10/01 07:27:06;;;;;;;8.98;5.93;;;16.30;99.90;;;;;;5032759;28;20202;-78
2023/10/01 07:29:34;;;;;;;8.50;4.93;;;16.30;99.90;;;;;;5030496;28;20223;-78
2023/10/01 07:32:04;;;;;;;10.50;5.55;;;16.40;99.90;;;;;;5015039;28;20234;-78
2023/10/01 07:34:32;;;;;;;9.48;5.72;;;16.40;99.90;;;;;;5024232;28;20192;-78
2023/10/01 07:37:04;;;;;;;11.13;5.75;;;16.40;99.90;;;;;;5033776;28;20568;-79
2023/10/01 07:39:36;;;;;;;9.45;5.47;;;16.50;99.90;;;;;;5040483;28;20716;-78
2023/10/01 07:42:05;;;;;;;10.10;6.22;;;16.50;99.90;;;;;;5026293;28;20548;-78
2023/10/01 07:44:37;;;;;;;11.23;6.00;;;16.50;99.90;;;;;;5009583;28;20206;-79
2023/10/01 07:47:04;;;;;;;10.10;5.07;;;16.60;99.90;;;;;;5011951;28;20212;-79
2023/10/01 07:49:47;;;;;;;13.90;7.03;;;16.60;99.90;;;;;;5015520;28;20245;-78
2023/10/01 07:52:18;;;;;;;17.08;8.23;;;16.60;99.90;;;;;;5025890;28;20681;-80
2023/10/01 07:54:48;;;;;;;11.43;6.05;;;16.90;99.90;;;;;;5013316;28;20192;-80
2023/10/01 07:57:17;;;;;;;9.65;6.00;;;16.90;99.90;;;;;;5017900;28;20642;-80
2023/10/01 07:59:46;;;;;;;11.18;6.75;;;16.90;99.90;;;;;;5017436;28;20235;-80
2023/10/01 08:02:21;;;;;;;10.52;5.63;;;17.10;99.90;;;;;;5014128;28;20203;-79
2023/10/01 08:04:57;;;;;;;10.45;5.43;;;17.10;99.90;;;;;;5031141;28;20203;-79
2023/10/01 08:07:31;;;;;;;9.25;5.78;;;17.20;99.90;;;;;;5038258;28;20191;-79
2023/10/01 08:10:04;;;;;;;9.20;5.38;;;17.20;99.90;;;;;;5020786;28;20192;-79
2023/10/01 08:13:04;;;;;;;11.75;6.47;;;17.20;99.90;;;;;;5035510;28;20226;-79
2023/10/01 08:15:31;;;;;;;11.00;6.20;;;17.30;99.90;;;;;;5017483;28;20226;-79
2023/10/01 08:18:19;;;;;;;10.63;5.97;;;17.40;99.90;;;;;;5010185;28;20235;-80
2023/10/01 08:20:56;;;;;;;10.02;6.43;;;17.40;99.90;;;;;;5020818;28;20200;-80
2023/10/01 08:23:26;;;;;;;11.50;5.82;;;17.50;99.90;;;;;;5017196;28;20198;-79
2023/10/01 08:25:55;;;;;;;11.02;6.30;;;17.60;99.90;;;;;;5038344;28;20196;-80
2023/10/01 08:28:43;;;;;;;10.95;6.13;;;17.60;99.90;;;;;;5020657;28;20223;-79
2023/10/01 08:36:48;;;;;;;12.00;6.53;;;17.80;99.90;;;;;;5035720;28;20199;-79
2023/10/01 08:39:33;;;;;;;10.00;6.28;;;18.00;99.90;;;;;;5014740;28;20235;-79
2023/10/01 08:42:08;;;;;;;11.32;6.15;;;18.00;99.90;;;;;;5017342;28;20192;-79
2023/10/01 08:44:45;;;;;;;9.98;5.63;;;18.00;99.90;;;;;;5015630;28;20210;-79
2023/10/01 08:47:27;;;;;;;10.20;6.15;;;18.00;99.90;;;;;;5015238;28;20198;-79
2023/10/01 08:50:18;;;;;;;12.02;6.80;;;18.10;99.90;;;;;;5017621;28;20661;-79
2023/10/01 08:52:57;;;;;;;10.00;5.65;;;18.10;99.90;;;;;;5030423;28;20199;-80
2023/10/01 08:55:35;;;;;;;10.32;6.05;;;18.10;99.90;;;;;;5004283;28;20200;-80
2023/10/01 08:58:15;;;;;;;9.13;5.60;;;18.10;99.90;;;;;;5012911;28;20223;-79
2023/10/01 09:00:49;;;;;;;11.90;6.28;;;18.20;99.90;;;;;;5010014;28;20669;-79
2023/10/01 09:03:26;;;;;;;11.00;6.10;;;18.30;99.90;;;;;;5032429;28;20218;-79
2023/10/01 09:06:03;;;;;;;11.20;6.65;;;18.30;99.90;;;;;;5016087;28;20204;-80
2023/10/01 09:08:45;;;;;;;13.00;6.53;;;18.50;99.90;;;;;;5031742;28;20227;-80
2023/10/01 09:11:17;;;;;;;11.48;6.40;;;18.60;99.90;;;;;;5034874;28;20199;-80
2023/10/01 09:13:58;;;;;;;12.75;7.28;;;18.60;99.90;;;;;;5035001;28;20208;-80
2023/10/01 09:16:32;;;;;;;12.25;6.63;;;18.70;99.90;;;;;;5015087;28;20195;-81
2023/10/01 09:19:05;;;;;;;12.10;6.43;;;18.80;99.90;;;;;;5033248;28;20223;-81
2023/10/01 09:21:38;;;;;;;11.20;6.22;;;18.80;99.90;;;;;;5029360;28;20218;-79
2023/10/01 09:24:32;;;;;;;12.07;6.13;;;18.90;99.90;;;;;;5015025;28;20204;-80
2023/10/01 09:27:19;;;;;;;10.07;5.63;;;18.90;99.90;;;;;;5030640;28;20566;-80
2023/10/01 09:29:48;;;;;;;9.55;6.30;;;19.00;99.90;;;;;;5031050;28;20222;-80
2023/10/01 09:32:19;;;;;;;13.30;7.07;;;19.10;99.90;;;;;;5014883;28;20196;-79
2023/10/01 09:34:57;;;;;;;11.13;6.32;;;19.00;99.90;;;;;;5026963;28;20199;-79
2023/10/01 09:37:34;;;;;;;11.73;6.60;;;19.20;99.90;;;;;;5015616;28;20204;-80
2023/10/01 09:40:13;;;;;;;12.85;6.90;;;19.20;99.90;;;;;;5017599;28;20195;-80
2023/10/01 09:42:56;;;;;;;12.60;6.65;;;19.20;99.90;;;;;;5017167;28;20696;-79
2023/10/01 09:45:29;;;;;;;10.43;6.18;;;19.20;99.90;;;;;;5029867;28;20203;-79
2023/10/01 09:48:09;;;;;;;12.27;7.28;;;19.30;99.90;;;;;;5026534;28;20237;-80
2023/10/01 09:50:42;;;;;;;10.82;6.32;;;19.50;99.90;;;;;;5028683;28;20206;-80
2023/10/01 09:53:20;;;;;;;11.18;6.10;;;19.50;99.90;;;;;;5015782;28;20230;-79
2023/10/01 09:55:48;;;;;;;10.63;6.20;;;19.60;99.90;;;;;;5022494;28;20205;-79
2023/10/01 09:58:24;;;;;;;11.30;5.93;;;19.80;99.90;;;;;;5013975;28;20227;-80
2023/10/01 10:00:53;;;;;;;12.50;6.45;;;19.90;99.90;;;;;;5021283;28;20195;-80
2023/10/01 10:03:36;;;;;;;11.52;6.75;;;19.80;99.90;;;;;;5012501;28;20207;-80
2023/10/01 10:06:24;;;;;;;12.30;6.93;;;19.80;99.90;;;;;;5026054;28;20203;-79
2023/10/01 10:09:03;;;;;;;10.70;6.90;;;20.00;99.90;;;;;;5007336;28;20590;-80
2023/10/01 10:11:36;;;;;;;11.93;6.90;;;20.10;99.90;;;;;;5030136;28;20207;-79
2023/10/01 10:14:26;;;;;;;9.45;5.95;;;20.20;99.90;;;;;;5022238;28;20220;-79
2023/10/01 10:17:07;;;;;;;13.20;7.07;;;20.20;99.90;;;;;;5028619;28;20195;-79
2023/10/01 10:20:15;;;;;;;10.45;6.22;;;20.30;99.90;;;;;;5028257;28;20219;-79
2023/10/01 10:23:29;;;;;;;12.10;6.75;;;20.30;99.90;;;;;;5029774;28;20210;-78
2023/10/01 10:26:14;;;;;;;11.60;6.13;;;20.30;99.90;;;;;;5013134;28;20188;-77
2023/10/01 10:28:56;;;;;;;10.55;6.43;;;20.30;99.90;;;;;;5023707;28;20215;-79
2023/10/01 10:34:24;;;;;;;11.07;6.85;;;20.30;99.90;;;;;;5025791;28;20223;-78
2023/10/01 10:36:55;;;;;;;11.23;6.82;;;20.30;99.90;;;;;;5008060;28;20195;-79
2023/10/01 10:40:12;;;;;;;10.05;6.05;;;20.40;99.90;;;;;;5008962;28;20228;-78
2023/10/01 10:42:40;;;;;;;11.02;6.53;;;20.60;99.90;;;;;;5021138;28;20208;-78
2023/10/01 10:45:21;;;;;;;10.63;6.60;;;20.50;99.90;;;;;;5017082;28;20195;-79
2023/10/01 10:47:58;;;;;;;13.65;6.57;;;20.70;99.90;;;;;;5024799;28;20223;-78
2023/10/01 10:50:48;;;;;;;11.55;6.45;;;20.80;99.90;;;;;;5017425;28;20179;-82
2023/10/01 10:53:20;;;;;;;11.93;6.53;;;20.80;99.90;;;;;;5024089;28;20214;-80
2023/10/01 10:56:07;;;;;;;9.77;5.55;;;20.70;99.90;;;;;;5023163;28;20199;-80
2023/10/01 10:58:39;;;;;;;10.93;6.68;;;20.50;99.90;;;;;;5027014;28;20215;-80
2023/10/01 11:01:16;;;;;;;13.30;6.15;;;20.70;99.90;;;;;;5025332;28;20211;-81
2023/10/01 11:03:47;;;;;;;11.57;6.47;;;20.90;99.90;;;;;;5044548;28;20241;-80
2023/10/01 11:06:20;;;;;;;12.60;6.43;;;21.10;99.90;;;;;;5041489;28;20208;-81
2023/10/01 11:08:52;;;;;;;11.68;7.00;;;21.00;99.90;;;;;;5039366;28;20229;-81
2023/10/01 11:11:25;;;;;;;9.20;6.35;;;20.90;99.90;;;;;;5021541;28;20211;-81
2023/10/01 11:14:00;;;;;;;10.95;6.35;;;21.00;99.90;;;;;;5041147;28;20222;-81
2023/10/01 11:16:33;;;;;;;9.88;6.35;;;21.20;99.90;;;;;;5027260;28;20191;-81
2023/10/01 11:19:12;;;;;;;12.05;6.93;;;21.30;99.90;;;;;;5026130;28;20249;-81
2023/10/01 11:21:54;;;;;;;10.95;6.32;;;21.30;99.90;;;;;;5033626;28;20190;-81
2023/10/01 11:24:25;;;;;;;10.50;5.97;;;21.50;99.90;;;;;;5024610;28;20184;-81
2023/10/01 11:27:22;;;;;;;10.40;6.00;;;21.60;99.90;;;;;;5041027;28;20204;-81
2023/10/01 11:29:58;;;;;;;10.52;5.95;;;21.50;99.90;;;;;;5038664;28;20210;-81
2023/10/01 11:33:12;;;;;;;10.48;5.82;;;21.70;99.90;;;;;;5027563;28;20198;-81
2023/10/01 11:35:59;;;;;;;10.85;6.45;;;21.80;99.90;;;;;;5040889;28;20196;-81
2023/10/01 11:38:32;;;;;;;14.02;6.97;;;22.00;99.90;;;;;;5029037;28;20227;-81
2023/10/01 11:41:10;;;;;;;12.45;6.57;;;21.90;99.90;;;;;;5025626;28;20566;-81
2023/10/01 11:43:41;;;;;;;10.73;6.53;;;21.90;99.90;;;;;;5026400;28;20618;-80
2023/10/01 11:46:20;;;;;;;10.52;6.22;;;21.70;99.90;;;;;;5028172;28;20195;-81
2023/10/01 11:48:59;;;;;;;11.63;6.72;;;21.80;99.90;;;;;;5029083;28;20215;-81
2023/10/01 11:51:31;;;;;;;10.10;6.53;;;22.00;99.90;;;;;;5029849;28;20207;-81
2023/10/01 11:54:12;;;;;;;11.50;5.95;;;22.20;99.90;;;;;;5045663;28;20207;-81
2023/10/01 11:56:45;;;;;;;11.35;6.80;;;22.30;99.90;;;;;;5046889;28;20209;-81
2023/10/01 11:59:20;;;;;;;10.68;6.32;;;22.50;99.90;;;;;;5031916;28;20705;-82
2023/10/01 12:01:50;;;;;;;9.45;5.97;;;22.50;99.90;;;;;;5033306;28;20208;-82
2023/10/01 12:04:24;;;;;;;12.52;6.57;;;22.50;99.90;;;;;;5040001;28;20195;-78
2023/10/01 12:06:53;;;;;;;11.63;6.57;;;22.70;99.90;;;;;;5029388;28;20214;-78
2023/10/01 12:09:24;;;;;;;11.05;6.63;;;22.60;99.90;;;;;;5018305;28;20231;-78
2023/10/01 12:12:04;;;;;;;11.70;6.75;;;22.30;99.90;;;;;;5030278;28;20212;-78
2023/10/01 12:14:52;;;;;;;10.88;6.28;;;22.50;99.90;;;;;;5031165;28;20203;-78
2023/10/01 12:17:30;;;;;;;11.50;6.55;;;22.60;99.90;;;;;;5062951;28;20218;-78
2023/10/01 12:20:00;;;;;;;11.15;7.10;;;22.60;99.90;;;;;;5070324;28;20198;-79
2023/10/01 12:22:29;;;;;;;11.20;7.05;;;22.80;99.90;;;;;;5068014;28;20198;-80
2023/10/01 12:24:59;;;;;;;9.30;6.25;;;23.10;99.90;;;;;;5073127;28;20228;-80
2023/10/01 12:27:45;;;;;;;13.63;6.22;;;23.40;99.90;;;;;;5071537;28;20202;-81
2023/10/01 12:30:29;;;;;;;10.05;6.03;;;23.20;99.90;;;;;;5071485;28;20197;-80
2023/10/01 12:33:03;;;;;;;11.23;7.20;;;23.10;99.90;;;;;;5069432;28;20653;-80
2023/10/01 12:35:34;;;;;;;10.27;7.10;;;23.00;99.90;;;;;;5070214;28;20216;-80
2023/10/01 12:40:52;;;;;;;11.38;7.07;;;23.20;99.90;;;;;;5069854;28;20602;-80
2023/10/01 12:43:39;;;;;;;11.13;7.22;;;23.40;99.90;;;;;;5066662;28;20201;-80
2023/10/01 12:46:09;;;;;;;13.10;6.70;;;23.00;99.90;;;;;;5072348;28;20225;-80
2023/10/01 12:48:40;;;;;;;12.27;7.72;;;23.30;99.90;;;;;;5069766;28;20210;-80
2023/10/01 12:51:12;;;;;;;11.52;7.22;;;23.60;99.90;;;;;;5067361;28;20190;-80
2023/10/01 12:53:47;;;;;;;11.73;6.80;;;23.80;99.90;;;;;;5070538;28;20196;-80
2023/10/01 12:56:21;;;;;;;13.57;7.53;;;23.70;99.90;;;;;;5062950;28;20587;-80
2023/10/01 12:58:53;;;;;;;14.63;8.52;;;23.80;99.90;;;;;;5068151;28;20225;-80
2023/10/01 13:01:32;;;;;;;14.52;7.28;;;23.80;99.80;;;;;;5065330;28;20206;-80
2023/10/01 13:04:16;;;;;;;12.75;7.63;;;23.60;99.90;;;;;;5058792;28;20218;-80
2023/10/01 13:06:46;;;;;;;13.43;8.60;;;23.50;99.90;;;;;;5067975;28;20206;-80
2023/10/01 13:09:53;;;;;;;12.00;7.15;;;23.70;99.90;;;;;;5066040;28;20213;-80
2023/10/01 13:12:13;;;;;;;13.10;8.07;;;23.70;99.90;;;;;;5064868;28;20199;-80
2023/10/01 13:14:41;;;;;;;12.88;7.63;;;23.70;99.90;;;;;;5061455;28;20190;-80
2023/10/01 13:17:19;;;;;;;15.98;8.23;;;23.90;99.50;;;;;;5071957;28;20222;-80
2023/10/01 13:19:48;;;;;;;13.25;7.50;;;23.90;99.90;;;;;;5073424;28;20200;-81
2023/10/01 13:22:18;;;;;;;13.27;7.45;;;23.80;99.90;;;;;;5065977;28;20233;-80
2023/10/01 13:24:53;;;;;;;11.57;7.10;;;23.40;99.90;;;;;;5062350;28;20220;-80
2023/10/01 13:27:23;;;;;;;12.57;7.75;;;23.40;99.90;;;;;;5066829;28;20213;-80
2023/10/01 13:30:14;;;;;;;12.30;7.28;;;23.60;99.90;;;;;;5071990;28;20216;-79
2023/10/01 13:32:57;;;;;;;13.68;8.10;;;23.60;99.90;;;;;;5061895;28;20695;-79
2023/10/01 13:35:35;;;;;;;14.27;8.10;;;23.40;99.90;;;;;;5071967;28;20228;-79
2023/10/01 13:38:26;;;;;;;17.17;8.25;;;23.50;99.90;;;;;;5063327;28;20201;-79
2023/10/01 14:08:44;;;;;;;14.10;7.82;;;23.60;99.90;;;;;;5068716;28;20194;-79
2023/10/01 14:11:12;;;;;;;12.82;7.57;;;23.80;99.90;;;;;;5076051;28;20203;-79
2023/10/01 14:13:41;;;;;;;14.35;7.80;;;23.60;99.90;;;;;;5069243;28;20200;-79
2023/10/01 14:16:17;;;;;;;11.35;7.60;;;23.40;99.90;;;;;;5059279;28;20233;-79
2023/10/01 14:18:54;;;;;;;14.10;8.18;;;23.50;99.90;;;;;;5062216;28;20220;-80
2023/10/01 14:21:51;;;;;;;15.70;7.75;;;23.30;99.90;;;;;;5060414;28;20217;-79